Annette, Alaska
Current Conditions -  °F | °C
As of 9:53 PM on Friday 24 Oct 2014 (Local Time) from PANT Reporting Station
Broken Clouds Broken Clouds  
Wind Chill:   Ceiling: 6000
Heat Index:   Visibility: 10mi
Dew Point:   Wind: 7mph
Humidity: 71%   Direction: NA
Pressure: 29.81"   Gusts: NA
Location:  55.05°N, 131.6°W
Report Text: PANT 250653Z AUTO VRB06KT 10SM SCT040 BKN060 BKN110 09/04 A2981 RMK AO2 RAE35 SLP096 P0001 T00940044 TSNO
Loading
Personal Weather Stations






























Interactive Weather Map
Tropical Storm Tracking
New forecast layout! Learn more

10-Day Weather Forecast

Advertisements
Track Severe Weather on mobile